Terminal Aerodrome Forecast
Issued by NWS

Home | Current Version | Previous Version | Text Only | Print | Product List | Glossary On
Versions: 1 2 3 4 5 6 7 8 9 10 11 12 13 14 15 16 17 18 19 20 21 22 23 24 25 26 27 28 29 30 31 32 33 34 35 36 37 38 39 40 41 42
000
FTUS41 KBOX 272330
TAFFMH
TAF
KFMH 272330Z 2800/2824 00000KT P6SM -SHRA OVC020
     FM280600 33006KT 1 1/2SM -SHSN OVC010
     FM281100 31008KT 4SM -SHSN OVC010
     FM281500 32011G19KT P6SM BKN025
     FM281700 32011G20KT P6SM BKN035
     FM282000 32009KT P6SM SCT250=

USA.gov is the U.S. government's official web portal to all federal, state and local government web resources and services.